sensor_id;sensor_type;location;lat;lon;timestamp;P1;durP1;ratioP1;P2;durP2;ratioP2
3979;SDS011;2004;52.452;13.120;2023-10-13T00:05:57;184.10;;;15.63;;
3979;SDS011;2004;52.452;13.120;2023-10-13T00:13:50;190.17;;;16.40;;
3979;SDS011;2004;52.452;13.120;2023-10-13T00:21:41;181.27;;;15.67;;
3979;SDS011;2004;52.452;13.120;2023-10-13T00:29:32;185.07;;;15.63;;
3979;SDS011;2004;52.452;13.120;2023-10-13T00:37:27;181.07;;;13.57;;
3979;SDS011;2004;52.452;13.120;2023-10-13T00:45:18;174.73;;;11.20;;
3979;SDS011;2004;52.452;13.120;2023-10-13T00:53:09;175.37;;;9.07;;
3979;SDS011;2004;52.452;13.120;2023-10-13T01:01:01;173.43;;;10.20;;
3979;SDS011;2004;52.452;13.120;2023-10-13T01:09:10;177.37;;;10.20;;
3979;SDS011;2004;52.452;13.120;2023-10-13T01:17:03;173.97;;;10.20;;
3979;SDS011;2004;52.452;13.120;2023-10-13T01:24:53;170.83;;;9.67;;
3979;SDS011;2004;52.452;13.120;2023-10-13T01:32:54;177.83;;;10.07;;
3979;SDS011;2004;52.452;13.120;2023-10-13T01:40:50;176.87;;;10.90;;
3979;SDS011;2004;52.452;13.120;2023-10-13T01:48:41;174.97;;;11.80;;
3979;SDS011;2004;52.452;13.120;2023-10-13T01:56:33;178.30;;;14.03;;
3979;SDS011;2004;52.452;13.120;2023-10-13T02:04:32;179.37;;;14.60;;
3979;SDS011;2004;52.452;13.120;2023-10-13T02:12:23;177.67;;;12.60;;
3979;SDS011;2004;52.452;13.120;2023-10-13T02:20:19;179.53;;;14.07;;
3979;SDS011;2004;52.452;13.120;2023-10-13T02:28:13;179.50;;;14.80;;
3979;SDS011;2004;52.452;13.120;2023-10-13T02:36:03;192.77;;;16.80;;
3979;SDS011;2004;52.452;13.120;2023-10-13T02:43:57;191.00;;;17.60;;
3979;SDS011;2004;52.452;13.120;2023-10-13T02:51:47;187.47;;;19.20;;
3979;SDS011;2004;52.452;13.120;2023-10-13T02:59:38;196.60;;;18.20;;
3979;SDS011;2004;52.452;13.120;2023-10-13T03:07:36;190.17;;;18.90;;
3979;SDS011;2004;52.452;13.120;2023-10-13T03:15:30;194.20;;;20.57;;
3979;SDS011;2004;52.452;13.120;2023-10-13T03:23:21;194.73;;;19.30;;
3979;SDS011;2004;52.452;13.120;2023-10-13T03:31:12;189.90;;;19.47;;
3979;SDS011;2004;52.452;13.120;2023-10-13T03:39:07;194.90;;;21.30;;
3979;SDS011;2004;52.452;13.120;2023-10-13T03:47:01;193.57;;;19.90;;
3979;SDS011;2004;52.452;13.120;2023-10-13T03:55:08;193.57;;;20.37;;
3979;SDS011;2004;52.452;13.120;2023-10-13T04:03:07;192.87;;;19.40;;
3979;SDS011;2004;52.452;13.120;2023-10-13T04:11:05;194.60;;;20.80;;
3979;SDS011;2004;52.452;13.120;2023-10-13T04:19:14;200.50;;;24.33;;
3979;SDS011;2004;52.452;13.120;2023-10-13T04:27:12;195.43;;;22.20;;
3979;SDS011;2004;52.452;13.120;2023-10-13T04:35:08;207.27;;;23.87;;
3979;SDS011;2004;52.452;13.120;2023-10-13T04:43:08;193.27;;;22.20;;
3979;SDS011;2004;52.452;13.120;2023-10-13T04:51:22;192.73;;;21.57;;
3979;SDS011;2004;52.452;13.120;2023-10-13T04:59:33;196.60;;;23.80;;
3979;SDS011;2004;52.452;13.120;2023-10-13T05:07:47;188.50;;;19.70;;
3979;SDS011;2004;52.452;13.120;2023-10-13T05:15:56;202.37;;;23.80;;
3979;SDS011;2004;52.452;13.120;2023-10-13T05:24:05;190.47;;;21.07;;
3979;SDS011;2004;52.452;13.120;2023-10-13T05:32:15;188.83;;;19.43;;
3979;SDS011;2004;52.452;13.120;2023-10-13T05:40:24;191.37;;;20.77;;
3979;SDS011;2004;52.452;13.120;2023-10-13T05:48:33;192.23;;;19.77;;
3979;SDS011;2004;52.452;13.120;2023-10-13T05:56:53;193.13;;;20.97;;
3979;SDS011;2004;52.452;13.120;2023-10-13T06:05:02;197.03;;;22.23;;
3979;SDS011;2004;52.452;13.120;2023-10-13T06:13:16;193.57;;;21.73;;
3979;SDS011;2004;52.452;13.120;2023-10-13T06:21:25;196.23;;;21.90;;
3979;SDS011;2004;52.452;13.120;2023-10-13T06:29:34;194.83;;;18.57;;
3979;SDS011;2004;52.452;13.120;2023-10-13T06:37:25;187.57;;;19.77;;
3979;SDS011;2004;52.452;13.120;2023-10-13T06:45:16;198.30;;;21.60;;
3979;SDS011;2004;52.452;13.120;2023-10-13T06:53:08;198.13;;;21.70;;
3979;SDS011;2004;52.452;13.120;2023-10-13T07:01:06;194.67;;;20.40;;
3979;SDS011;2004;52.452;13.120;2023-10-13T07:08:57;191.43;;;21.40;;
3979;SDS011;2004;52.452;13.120;2023-10-13T07:17:01;188.93;;;19.57;;
3979;SDS011;2004;52.452;13.120;2023-10-13T07:24:55;188.30;;;18.00;;
3979;SDS011;2004;52.452;13.120;2023-10-13T07:32:48;201.03;;;18.50;;
3979;SDS011;2004;52.452;13.120;2023-10-13T07:40:40;188.17;;;17.83;;
3979;SDS011;2004;52.452;13.120;2023-10-13T07:48:30;187.17;;;18.30;;
3979;SDS011;2004;52.452;13.120;2023-10-13T07:56:21;195.03;;;17.30;;
3979;SDS011;2004;52.452;13.120;2023-10-13T08:04:11;188.90;;;16.50;;
3979;SDS011;2004;52.452;13.120;2023-10-13T08:12:02;178.30;;;14.17;;
3979;SDS011;2004;52.452;13.120;2023-10-13T08:19:55;183.57;;;14.70;;
3979;SDS011;2004;52.452;13.120;2023-10-13T08:27:46;177.27;;;14.70;;
3979;SDS011;2004;52.452;13.120;2023-10-13T08:35:55;182.10;;;15.33;;
3979;SDS011;2004;52.452;13.120;2023-10-13T08:44:01;181.90;;;15.30;;
3979;SDS011;2004;52.452;13.120;2023-10-13T08:51:55;175.53;;;13.90;;
3979;SDS011;2004;52.452;13.120;2023-10-13T09:00:16;176.50;;;14.33;;
3979;SDS011;2004;52.452;13.120;2023-10-13T09:08:38;178.27;;;15.07;;
3979;SDS011;2004;52.452;13.120;2023-10-13T09:17:00;176.27;;;13.23;;
3979;SDS011;2004;52.452;13.120;2023-10-13T09:25:23;176.37;;;13.70;;
3979;SDS011;2004;52.452;13.120;2023-10-13T09:33:13;177.50;;;14.33;;
3979;SDS011;2004;52.452;13.120;2023-10-13T09:41:22;179.53;;;15.13;;
3979;SDS011;2004;52.452;13.120;2023-10-13T09:49:22;178.67;;;14.70;;
3979;SDS011;2004;52.452;13.120;2023-10-13T09:57:35;174.77;;;13.70;;
3979;SDS011;2004;52.452;13.120;2023-10-13T10:05:31;181.70;;;15.17;;
3979;SDS011;2004;52.452;13.120;2023-10-13T10:13:35;178.10;;;13.97;;
3979;SDS011;2004;52.452;13.120;2023-10-13T10:21:47;173.97;;;13.97;;
3979;SDS011;2004;52.452;13.120;2023-10-13T10:29:56;173.37;;;13.33;;
3979;SDS011;2004;52.452;13.120;2023-10-13T10:37:48;176.23;;;13.77;;
3979;SDS011;2004;52.452;13.120;2023-10-13T10:45:45;174.80;;;12.57;;
3979;SDS011;2004;52.452;13.120;2023-10-13T10:53:41;178.77;;;14.50;;
3979;SDS011;2004;52.452;13.120;2023-10-13T11:01:42;177.00;;;14.60;;
3979;SDS011;2004;52.452;13.120;2023-10-13T11:09:37;176.83;;;13.57;;
3979;SDS011;2004;52.452;13.120;2023-10-13T11:17:27;179.33;;;15.23;;
3979;SDS011;2004;52.452;13.120;2023-10-13T11:25:31;178.47;;;14.40;;
3979;SDS011;2004;52.452;13.120;2023-10-13T11:33:25;179.37;;;14.13;;
3979;SDS011;2004;52.452;13.120;2023-10-13T11:41:21;174.37;;;13.73;;
3979;SDS011;2004;52.452;13.120;2023-10-13T11:49:12;177.23;;;13.50;;
3979;SDS011;2004;52.452;13.120;2023-10-13T11:57:03;175.17;;;14.70;;
3979;SDS011;2004;52.452;13.120;2023-10-13T12:04:54;180.67;;;12.80;;
3979;SDS011;2004;52.452;13.120;2023-10-13T12:12:47;183.97;;;13.80;;
3979;SDS011;2004;52.452;13.120;2023-10-13T12:20:43;175.60;;;14.57;;
3979;SDS011;2004;52.452;13.120;2023-10-13T12:28:35;178.67;;;12.27;;
3979;SDS011;2004;52.452;13.120;2023-10-13T12:36:31;173.77;;;13.37;;
3979;SDS011;2004;52.452;13.120;2023-10-13T12:44:31;171.63;;;11.50;;
3979;SDS011;2004;52.452;13.120;2023-10-13T12:52:47;176.07;;;13.03;;
3979;SDS011;2004;52.452;13.120;2023-10-13T13:00:38;174.20;;;12.03;;
3979;SDS011;2004;52.452;13.120;2023-10-13T13:08:30;176.90;;;12.00;;
3979;SDS011;2004;52.452;13.120;2023-10-13T13:16:25;175.90;;;12.13;;
3979;SDS011;2004;52.452;13.120;2023-10-13T13:24:20;179.67;;;11.90;;
3979;SDS011;2004;52.452;13.120;2023-10-13T13:32:11;177.67;;;13.40;;
3979;SDS011;2004;52.452;13.120;2023-10-13T13:40:28;169.87;;;12.10;;
3979;SDS011;2004;52.452;13.120;2023-10-13T13:48:25;177.50;;;12.87;;
3979;SDS011;2004;52.452;13.120;2023-10-13T13:56:17;177.50;;;12.23;;
3979;SDS011;2004;52.452;13.120;2023-10-13T14:04:08;176.13;;;12.17;;
3979;SDS011;2004;52.452;13.120;2023-10-13T14:11:59;174.20;;;11.50;;
3979;SDS011;2004;52.452;13.120;2023-10-13T14:20:08;171.77;;;12.00;;
3979;SDS011;2004;52.452;13.120;2023-10-13T14:28:08;177.30;;;10.77;;
3979;SDS011;2004;52.452;13.120;2023-10-13T14:36:01;167.43;;;10.80;;
3979;SDS011;2004;52.452;13.120;2023-10-13T14:43:55;191.00;;;12.10;;
3979;SDS011;2004;52.452;13.120;2023-10-13T14:51:54;180.00;;;12.10;;
3979;SDS011;2004;52.452;13.120;2023-10-13T14:59:45;175.40;;;11.57;;
3979;SDS011;2004;52.452;13.120;2023-10-13T15:07:36;180.43;;;13.47;;
3979;SDS011;2004;52.452;13.120;2023-10-13T15:15:26;171.13;;;11.97;;
3979;SDS011;2004;52.452;13.120;2023-10-13T15:23:20;172.10;;;13.80;;
3979;SDS011;2004;52.452;13.120;2023-10-13T15:31:13;174.90;;;11.53;;
3979;SDS011;2004;52.452;13.120;2023-10-13T15:39:27;182.63;;;12.00;;
3979;SDS011;2004;52.452;13.120;2023-10-13T15:47:18;171.87;;;11.40;;
3979;SDS011;2004;52.452;13.120;2023-10-13T15:55:09;166.90;;;10.73;;
3979;SDS011;2004;52.452;13.120;2023-10-13T16:03:03;176.93;;;11.63;;
3979;SDS011;2004;52.452;13.120;2023-10-13T16:11:04;169.27;;;11.40;;
3979;SDS011;2004;52.452;13.120;2023-10-13T16:18:57;174.83;;;11.53;;
3979;SDS011;2004;52.452;13.120;2023-10-13T16:26:48;183.10;;;12.57;;
3979;SDS011;2004;52.452;13.120;2023-10-13T16:34:39;175.13;;;12.23;;
3979;SDS011;2004;52.452;13.120;2023-10-13T16:42:33;168.13;;;10.70;;
3979;SDS011;2004;52.452;13.120;2023-10-13T16:50:24;177.50;;;11.63;;
3979;SDS011;2004;52.452;13.120;2023-10-13T16:58:16;171.40;;;10.03;;
3979;SDS011;2004;52.452;13.120;2023-10-13T17:06:07;181.17;;;11.10;;
3979;SDS011;2004;52.452;13.120;2023-10-13T17:13:58;173.73;;;10.37;;
3979;SDS011;2004;52.452;13.120;2023-10-13T17:21:48;171.33;;;10.30;;
3979;SDS011;2004;52.452;13.120;2023-10-13T17:29:40;173.70;;;10.57;;
3979;SDS011;2004;52.452;13.120;2023-10-13T17:37:32;168.10;;;10.47;;
3979;SDS011;2004;52.452;13.120;2023-10-13T17:45:23;171.27;;;10.40;;
3979;SDS011;2004;52.452;13.120;2023-10-13T17:53:14;179.90;;;10.43;;
3979;SDS011;2004;52.452;13.120;2023-10-13T18:01:05;171.47;;;10.47;;
3979;SDS011;2004;52.452;13.120;2023-10-13T18:08:59;170.57;;;10.50;;
3979;SDS011;2004;52.452;13.120;2023-10-13T18:16:49;186.00;;;10.53;;
3979;SDS011;2004;52.452;13.120;2023-10-13T18:24:43;176.77;;;10.73;;
3979;SDS011;2004;52.452;13.120;2023-10-13T18:32:34;168.10;;;10.10;;
3979;SDS011;2004;52.452;13.120;2023-10-13T18:40:26;168.27;;;10.80;;
3979;SDS011;2004;52.452;13.120;2023-10-13T18:48:18;171.17;;;10.67;;
3979;SDS011;2004;52.452;13.120;2023-10-13T18:56:21;172.10;;;10.90;;
3979;SDS011;2004;52.452;13.120;2023-10-13T19:04:13;172.70;;;10.33;;
3979;SDS011;2004;52.452;13.120;2023-10-13T19:12:04;171.30;;;10.90;;
3979;SDS011;2004;52.452;13.120;2023-10-13T19:19:58;171.07;;;10.10;;
3979;SDS011;2004;52.452;13.120;2023-10-13T19:27:49;172.30;;;10.73;;
3979;SDS011;2004;52.452;13.120;2023-10-13T19:35:40;169.50;;;10.40;;
3979;SDS011;2004;52.452;13.120;2023-10-13T19:43:31;177.70;;;10.40;;
3979;SDS011;2004;52.452;13.120;2023-10-13T19:51:21;169.93;;;10.80;;
3979;SDS011;2004;52.452;13.120;2023-10-13T19:59:16;170.03;;;9.80;;
3979;SDS011;2004;52.452;13.120;2023-10-13T20:07:08;172.50;;;10.60;;
3979;SDS011;2004;52.452;13.120;2023-10-13T20:14:59;166.30;;;9.30;;
3979;SDS011;2004;52.452;13.120;2023-10-13T20:22:50;173.63;;;9.90;;
3979;SDS011;2004;52.452;13.120;2023-10-13T20:30:40;167.77;;;10.03;;
3979;SDS011;2004;52.452;13.120;2023-10-13T20:38:32;168.50;;;10.13;;
3979;SDS011;2004;52.452;13.120;2023-10-13T20:46:23;183.63;;;10.70;;
3979;SDS011;2004;52.452;13.120;2023-10-13T20:54:13;170.07;;;10.93;;
3979;SDS011;2004;52.452;13.120;2023-10-13T21:02:04;173.90;;;10.50;;
3979;SDS011;2004;52.452;13.120;2023-10-13T21:09:55;170.57;;;10.00;;
3979;SDS011;2004;52.452;13.120;2023-10-13T21:17:48;169.50;;;10.23;;
3979;SDS011;2004;52.452;13.120;2023-10-13T21:25:39;170.00;;;10.30;;
3979;SDS011;2004;52.452;13.120;2023-10-13T21:33:30;167.70;;;9.90;;
3979;SDS011;2004;52.452;13.120;2023-10-13T21:41:21;170.50;;;10.77;;
3979;SDS011;2004;52.452;13.120;2023-10-13T21:49:12;179.87;;;10.00;;
3979;SDS011;2004;52.452;13.120;2023-10-13T21:57:03;167.17;;;9.73;;
3979;SDS011;2004;52.452;13.120;2023-10-13T22:04:55;166.07;;;9.70;;
3979;SDS011;2004;52.452;13.120;2023-10-13T22:12:46;174.27;;;10.20;;
3979;SDS011;2004;52.452;13.120;2023-10-13T22:20:37;172.93;;;10.03;;
3979;SDS011;2004;52.452;13.120;2023-10-13T22:28:28;165.60;;;9.90;;
3979;SDS011;2004;52.452;13.120;2023-10-13T22:36:19;167.33;;;10.17;;
3979;SDS011;2004;52.452;13.120;2023-10-13T22:44:14;174.50;;;10.87;;
3979;SDS011;2004;52.452;13.120;2023-10-13T22:52:08;169.00;;;10.30;;
3979;SDS011;2004;52.452;13.120;2023-10-13T22:59:59;172.60;;;9.73;;
3979;SDS011;2004;52.452;13.120;2023-10-13T23:07:49;174.40;;;10.80;;
3979;SDS011;2004;52.452;13.120;2023-10-13T23:15:50;172.70;;;9.53;;
3979;SDS011;2004;52.452;13.120;2023-10-13T23:23:43;169.70;;;11.03;;
3979;SDS011;2004;52.452;13.120;2023-10-13T23:31:43;177.00;;;13.10;;
3979;SDS011;2004;52.452;13.120;2023-10-13T23:39:36;169.90;;;10.77;;
3979;SDS011;2004;52.452;13.120;2023-10-13T23:47:27;174.43;;;11.17;;
3979;SDS011;2004;52.452;13.120;2023-10-13T23:55:18;168.70;;;10.97;;
